Terminal Aerodrome Forecast
Issued by NWS

Home | Current Version | Previous Version | Text Only | Print | Product List | Glossary On
Versions: 1 2 3 4 5 6 7 8 9 10 11 12 13 14 15 16
183
FTUS44 KLZK 241140
TAFBPK
TAF
KBPK 241140Z 2412/2512 11005KT P6SM BKN040 OVC250
     FM241500 16009KT P6SM VCSH SCT040 OVC060
      TEMPO 2418/2422 5SM TSRA BR OVC030CB
     FM242200 15005KT P6SM VCSH SCT040 OVC060=

USA.gov is the U.S. government's official web portal to all federal, state and local government web resources and services.